Time;durP1;ratioP1;P1;durP2;ratioP2;P2;SDS_P1;SDS_P2;PMS_P1;PMS_P2;Temp;Humidity;BMP_temperature;BMP_pressure;BME280_temperature;BME280_humidity;BME280_pressure;Samples;Min_cycle;Max_cycle;Signal;HPM_P1;HPM_P2
2022/01/28 00:01:03;;;;;;;20.58;3.03;;;5.00;99.90;;;;;;5012597;28;20038;-63
2022/01/28 00:03:31;;;;;;;15.57;2.65;;;5.00;99.90;;;;;;5012581;28;20496;-63
2022/01/28 00:05:58;;;;;;;15.70;2.80;;;5.10;99.90;;;;;;5012540;28;20125;-64
2022/01/28 00:08:23;;;;;;;12.93;2.90;;;5.10;99.90;;;;;;5012633;28;20037;-63
2022/01/28 00:10:51;;;;;;;15.43;2.55;;;5.00;99.90;;;;;;5012421;28;20045;-63
2022/01/28 00:13:27;;;;;;;8.25;2.33;;;5.10;99.90;;;;;;5011163;28;20038;-63
2022/01/28 00:39:36;;;;;;;9.13;2.63;;;4.80;99.90;;;;;;5012062;28;20042;-63
2022/01/28 00:42:02;;;;;;;13.30;2.45;;;4.80;99.90;;;;;;5011977;28;20042;-63
2022/01/28 00:44:28;;;;;;;10.75;2.60;;;4.80;99.90;;;;;;5011528;28;20046;-63
2022/01/28 00:46:53;;;;;;;10.25;2.05;;;4.80;99.90;;;;;;5012278;28;20042;-63
2022/01/28 00:49:19;;;;;;;13.68;2.42;;;4.80;99.90;;;;;;5012070;28;20033;-63
2022/01/28 00:51:45;;;;;;;15.00;2.25;;;4.80;99.90;;;;;;5011789;28;20038;-63
2022/01/28 00:54:10;;;;;;;18.27;2.65;;;4.80;99.90;;;;;;5011610;28;20037;-64
2022/01/28 00:56:36;;;;;;;14.45;2.72;;;4.70;99.90;;;;;;5011824;28;20706;-63
2022/01/28 00:59:01;;;;;;;19.52;2.83;;;4.80;99.90;;;;;;5011685;28;20053;-63
2022/01/28 01:01:29;;;;;;;13.65;3.25;;;4.80;99.90;;;;;;5011588;28;20133;-63
2022/01/28 01:03:59;;;;;;;13.15;2.05;;;4.90;99.90;;;;;;5011498;28;20073;-63
2022/01/28 01:06:25;;;;;;;16.30;2.65;;;5.00;99.90;;;;;;5011604;28;20092;-63
2022/01/28 01:08:51;;;;;;;12.55;2.33;;;4.90;99.90;;;;;;5011644;28;20443;-62
2022/01/28 01:11:20;;;;;;;15.25;2.75;;;4.80;99.90;;;;;;5011361;28;20040;-63
2022/01/28 01:13:46;;;;;;;20.90;2.58;;;4.80;99.90;;;;;;5011009;28;20077;-63
2022/01/28 01:16:15;;;;;;;14.73;2.55;;;4.80;99.90;;;;;;5011589;28;20491;-63
2022/01/28 01:18:53;;;;;;;14.38;2.25;;;4.80;99.90;;;;;;5011509;28;20053;-63
2022/01/28 01:21:25;;;;;;;17.73;2.65;;;4.70;99.90;;;;;;5011275;28;20046;-63
2022/01/28 01:23:53;;;;;;;12.40;2.35;;;4.70;99.90;;;;;;5011036;28;20477;-63
2022/01/28 01:26:27;;;;;;;21.50;3.15;;;4.60;99.90;;;;;;5010909;28;20069;-63
2022/01/28 01:28:53;;;;;;;18.63;3.45;;;4.50;99.90;;;;;;5011442;28;20045;-63
2022/01/28 01:31:19;;;;;;;20.70;3.10;;;4.60;99.90;;;;;;5011200;28;20034;-63
2022/01/28 01:33:52;;;;;;;21.13;2.72;;;4.70;99.90;;;;;;5010911;28;20066;-63
2022/01/28 01:36:18;;;;;;;18.13;2.70;;;4.70;99.90;;;;;;5010764;28;20411;-63
2022/01/28 01:38:43;;;;;;;20.50;4.03;;;4.70;99.90;;;;;;5010712;28;20511;-63
2022/01/28 01:41:18;;;;;;;15.52;2.85;;;4.70;99.90;;;;;;5011191;28;20073;-63
2022/01/28 01:54:18;;;;;;;14.25;2.92;;;4.80;99.90;;;;;;5010572;28;20104;-63
2022/01/28 01:56:45;;;;;;;8.90;2.05;;;4.80;99.90;;;;;;5010640;28;20037;-63
2022/01/28 01:59:10;;;;;;;15.00;2.90;;;4.80;99.90;;;;;;5010651;28;20042;-63
2022/01/28 02:01:36;;;;;;;17.98;2.92;;;4.90;99.90;;;;;;5009706;28;20041;-63
2022/01/28 02:04:02;;;;;;;13.63;2.50;;;4.80;99.90;;;;;;5009623;28;20069;-63
2022/01/28 02:06:27;;;;;;;11.40;2.58;;;4.80;99.90;;;;;;5009811;28;20082;-63
2022/01/28 02:08:53;;;;;;;17.02;2.60;;;4.80;99.90;;;;;;5009731;28;20041;-63
2022/01/28 02:11:19;;;;;;;20.25;2.30;;;4.90;99.90;;;;;;5009782;28;20052;-63
2022/01/28 02:13:50;;;;;;;13.50;2.70;;;4.90;99.90;;;;;;5009608;28;20452;-63
2022/01/28 02:16:17;;;;;;;11.60;2.20;;;4.90;99.90;;;;;;5008180;28;20049;-63
2022/01/28 02:18:43;;;;;;;14.52;2.45;;;4.90;99.90;;;;;;5009545;28;20034;-63
2022/01/28 02:21:11;;;;;;;11.18;2.10;;;5.00;99.90;;;;;;5009531;28;20029;-63
2022/01/28 02:23:38;;;;;;;10.85;2.47;;;5.00;99.90;;;;;;5009491;28;20026;-63
2022/01/28 02:26:05;;;;;;;16.00;2.70;;;5.00;99.90;;;;;;5009455;28;20042;-64
2022/01/28 02:28:35;;;;;;;18.58;2.42;;;5.00;99.90;;;;;;5009404;28;20041;-64
2022/01/28 02:31:02;;;;;;;18.80;3.00;;;4.90;99.90;;;;;;5009530;28;20034;-63
2022/01/28 02:33:28;;;;;;;13.60;2.95;;;5.00;99.90;;;;;;5009589;28;20034;-64
2022/01/28 02:35:55;;;;;;;11.75;3.15;;;5.00;99.90;;;;;;5009555;28;20050;-64
2022/01/28 02:38:22;;;;;;;16.30;3.30;;;5.00;99.90;;;;;;5009492;28;20046;-63
2022/01/28 02:40:56;;;;;;;18.42;2.97;;;5.20;99.90;;;;;;5008127;28;20046;-63
2022/01/28 02:45:50;;;;;;;12.82;2.40;;;5.20;99.90;;;;;;5009384;28;20054;-63
2022/01/28 02:48:23;;;;;;;11.45;2.88;;;5.30;99.90;;;;;;5012290;28;20176;-63
2022/01/28 02:53:28;;;;;;;18.52;2.40;;;5.40;99.90;;;;;;5012466;28;20046;-64
2022/01/28 02:56:00;;;;;;;23.25;3.88;;;5.30;99.90;;;;;;5011623;28;20050;-63
2022/01/28 02:58:26;;;;;;;20.88;3.30;;;5.20;99.90;;;;;;5012855;28;20112;-64
2022/01/28 03:00:55;;;;;;;14.85;2.65;;;5.20;99.90;;;;;;4978485;28;1006460;-64
2022/01/28 03:03:23;;;;;;;14.07;3.15;;;5.00;99.90;;;;;;5013875;28;20077;-64
2022/01/28 03:05:53;;;;;;;13.57;2.83;;;4.90;99.90;;;;;;5013852;28;20044;-63
2022/01/28 03:08:22;;;;;;;28.17;4.88;;;4.90;99.90;;;;;;5013518;28;20100;-64
2022/01/28 03:13:33;;;;;;;16.50;2.58;;;4.80;99.90;;;;;;5013619;28;20042;-64
2022/01/28 03:16:09;;;;;;;18.35;3.03;;;4.70;99.90;;;;;;5012555;28;20072;-63
2022/01/28 03:18:54;;;;;;;22.60;3.25;;;4.70;99.90;;;;;;5013469;28;20089;-63
2022/01/28 03:23:53;;;;;;;12.63;2.75;;;4.50;99.90;;;;;;5013431;28;20073;-64
2022/01/28 03:26:19;;;;;;;16.23;2.90;;;4.50;99.90;;;;;;5013616;28;20038;-63
2022/01/28 03:28:44;;;;;;;15.93;2.65;;;4.50;99.90;;;;;;5013398;28;20038;-64
2022/01/28 03:31:10;;;;;;;10.13;2.10;;;4.50;99.90;;;;;;5013048;28;20088;-64
2022/01/28 03:33:36;;;;;;;11.45;2.03;;;4.50;99.90;;;;;;5013271;28;20037;-63
2022/01/28 03:36:08;;;;;;;20.33;3.47;;;4.60;99.90;;;;;;5013520;28;20511;-63
2022/01/28 03:38:34;;;;;;;12.40;2.63;;;4.60;99.90;;;;;;5013325;28;20042;-63
2022/01/28 03:41:00;;;;;;;18.08;2.67;;;4.60;99.90;;;;;;5013114;28;20069;-63
2022/01/28 03:43:26;;;;;;;12.45;2.63;;;4.70;99.90;;;;;;5012859;28;20057;-64
2022/01/28 03:45:52;;;;;;;17.60;2.97;;;4.80;99.90;;;;;;5013056;28;20046;-64
2022/01/28 03:48:17;;;;;;;23.65;2.97;;;4.80;99.90;;;;;;5028529;28;20044;-64
2022/01/28 03:50:43;;;;;;;18.23;2.72;;;4.80;99.90;;;;;;5012958;28;20037;-63
2022/01/28 03:53:09;;;;;;;18.08;3.20;;;4.80;99.90;;;;;;5012760;28;20128;-64
2022/01/28 03:55:35;;;;;;;17.63;2.97;;;4.80;99.90;;;;;;5012999;28;20042;-63
2022/01/28 03:58:01;;;;;;;19.45;3.72;;;4.80;99.90;;;;;;5012689;28;20497;-64
2022/01/28 04:00:29;;;;;;;20.20;3.17;;;4.90;99.90;;;;;;5012671;28;20044;-64
2022/01/28 04:03:07;;;;;;;18.05;2.85;;;4.80;99.90;;;;;;5012676;28;20038;-64
2022/01/28 04:13:32;;;;;;;22.40;3.40;;;4.60;99.90;;;;;;5012537;28;20049;-64
2022/01/28 04:18:24;;;;;;;15.18;3.33;;;4.70;99.90;;;;;;5012669;28;20050;-63
2022/01/28 04:20:49;;;;;;;20.88;4.05;;;4.70;99.90;;;;;;5012395;28;20041;-63
2022/01/28 04:23:15;;;;;;;21.63;3.50;;;4.70;99.90;;;;;;5012021;28;20077;-64
2022/01/28 04:25:40;;;;;;;30.58;3.83;;;4.70;99.90;;;;;;5012426;28;20527;-63
2022/01/28 04:28:06;;;;;;;28.35;3.85;;;4.80;99.90;;;;;;5012676;28;20038;-63
2022/01/28 04:30:31;;;;;;;26.63;4.32;;;4.80;99.90;;;;;;5012309;28;20038;-63
2022/01/28 04:32:57;;;;;;;19.67;3.15;;;4.80;99.90;;;;;;5012046;28;20056;-64
2022/01/28 04:35:23;;;;;;;28.27;3.90;;;4.90;99.90;;;;;;5012272;28;20501;-64
2022/01/28 04:40:28;;;;;;;20.38;2.97;;;4.90;99.90;;;;;;5012226;28;20042;-64
2022/01/28 04:46:03;;;;;;;26.02;3.65;;;4.90;99.90;;;;;;4999432;28;20137;-64
2022/01/28 04:48:37;;;;;;;21.17;3.97;;;4.90;99.90;;;;;;5011077;28;20050;-64
2022/01/28 04:51:17;;;;;;;19.33;4.60;;;4.90;99.90;;;;;;5011826;28;20050;-64
2022/01/28 04:53:58;;;;;;;16.27;2.88;;;5.00;99.90;;;;;;5026158;28;20045;-62
2022/01/28 04:59:20;;;;;;;21.42;3.05;;;5.00;99.90;;;;;;5011846;28;19948;-62
2022/01/28 05:04:55;;;;;;;27.25;4.15;;;5.00;99.90;;;;;;5011340;28;20436;-63
2022/01/28 05:13:17;;;;;;;25.15;3.20;;;5.10;99.90;;;;;;5011342;28;20034;-63
2022/01/28 05:24:06;;;;;;;21.15;3.83;;;5.20;99.90;;;;;;5010918;28;20539;-63
2022/01/28 05:28:49;;;;;;;14.63;2.97;;;5.10;99.90;;;;;;5011375;28;20129;-62
2022/01/28 05:31:18;;;;;;;24.58;3.53;;;5.00;99.90;;;;;;5011033;28;20117;-63
2022/01/28 05:33:45;;;;;;;17.75;2.85;;;5.00;99.90;;;;;;5010825;28;20514;-62
2022/01/28 05:36:10;;;;;;;24.58;3.45;;;5.00;99.90;;;;;;5010885;28;20417;-63
2022/01/28 05:38:36;;;;;;;20.38;3.53;;;5.00;99.90;;;;;;5011359;28;20038;-63
2022/01/28 05:41:02;;;;;;;18.25;3.55;;;5.00;99.90;;;;;;5010789;28;20045;-63
2022/01/28 05:43:27;;;;;;;21.83;3.50;;;5.00;99.90;;;;;;5010758;28;20125;-63
2022/01/28 05:45:54;;;;;;;17.33;3.65;;;5.00;99.90;;;;;;5010857;28;20076;-62
2022/01/28 05:48:21;;;;;;;23.92;3.38;;;5.00;99.90;;;;;;5009687;28;20420;-63
2022/01/28 05:50:47;;;;;;;20.67;4.45;;;5.00;99.90;;;;;;5009277;28;20046;-63
2022/01/28 05:53:13;;;;;;;20.27;3.58;;;5.00;99.90;;;;;;5010669;28;20116;-63
2022/01/28 05:55:39;;;;;;;27.95;6.00;;;5.00;99.90;;;;;;5010869;28;20130;-63
2022/01/28 05:58:04;;;;;;;26.67;3.08;;;5.00;99.90;;;;;;5010847;28;20069;-63
2022/01/28 06:00:30;;;;;;;23.10;3.22;;;5.00;99.90;;;;;;5010597;28;20081;-63
2022/01/28 06:02:55;;;;;;;28.13;4.30;;;5.00;99.90;;;;;;5010051;28;20378;-62
2022/01/28 06:05:21;;;;;;;23.30;3.80;;;4.90;99.90;;;;;;5007260;28;20053;-63
2022/01/28 06:07:47;;;;;;;24.70;3.17;;;4.90;99.90;;;;;;5007761;28;20034;-63
2022/01/28 06:10:14;;;;;;;29.70;4.28;;;4.80;99.90;;;;;;5007373;28;20607;-63
2022/01/28 06:12:45;;;;;;;20.38;2.88;;;4.80;99.90;;;;;;5007314;28;20084;-63
2022/01/28 06:15:12;;;;;;;20.13;5.18;;;4.70;99.90;;;;;;5022615;28;20522;-62
2022/01/28 06:17:37;;;;;;;23.00;4.70;;;4.60;99.90;;;;;;5007118;28;20052;-62
2022/01/28 06:20:05;;;;;;;18.17;3.40;;;4.60;99.90;;;;;;5006217;28;20030;-64
2022/01/28 06:22:31;;;;;;;23.30;4.35;;;4.50;99.90;;;;;;5007000;28;20057;-63
2022/01/28 06:24:57;;;;;;;17.85;3.15;;;4.50;99.90;;;;;;5005754;28;20104;-63
2022/01/28 06:27:23;;;;;;;23.90;4.35;;;4.50;99.90;;;;;;5009386;28;20038;-63
2022/01/28 06:29:49;;;;;;;17.75;3.85;;;4.60;99.90;;;;;;5010236;28;20038;-63
2022/01/28 06:32:16;;;;;;;25.67;3.45;;;4.70;99.90;;;;;;5010146;28;20053;-63
2022/01/28 06:34:42;;;;;;;22.10;3.22;;;4.70;99.90;;;;;;5010193;28;20070;-63
2022/01/28 06:37:08;;;;;;;20.13;3.70;;;4.70;99.90;;;;;;5010305;28;20114;-63
2022/01/28 06:39:33;;;;;;;29.67;4.43;;;4.80;99.90;;;;;;5007266;28;20428;-63
2022/01/28 06:41:59;;;;;;;21.25;3.85;;;4.80;99.90;;;;;;5007294;28;20056;-63
2022/01/28 06:44:25;;;;;;;20.13;3.83;;;4.80;99.90;;;;;;5006880;28;20041;-63
2022/01/28 06:46:52;;;;;;;26.80;3.92;;;4.80;99.90;;;;;;5006955;28;20048;-63
2022/01/28 06:49:18;;;;;;;27.48;3.60;;;4.80;99.90;;;;;;5007104;28;20112;-63
2022/01/28 06:51:43;;;;;;;21.15;4.35;;;4.90;99.90;;;;;;5006744;28;20547;-63
2022/01/28 06:54:09;;;;;;;15.75;3.40;;;4.90;99.90;;;;;;5006649;28;20074;-63
2022/01/28 06:56:34;;;;;;;28.15;3.67;;;4.90;99.90;;;;;;5006884;28;20038;-63
2022/01/28 06:59:00;;;;;;;22.15;3.88;;;4.90;99.90;;;;;;5006833;28;20046;-63
2022/01/28 07:01:26;;;;;;;28.77;3.88;;;4.90;99.90;;;;;;5006565;28;20049;-63
2022/01/28 07:03:51;;;;;;;20.40;3.40;;;4.80;99.90;;;;;;5007212;28;20052;-62
2022/01/28 07:06:17;;;;;;;23.88;3.92;;;4.80;99.90;;;;;;5009931;28;20050;-62
2022/01/28 07:08:42;;;;;;;24.15;4.82;;;4.80;99.90;;;;;;5010015;28;20038;-62
2022/01/28 07:11:09;;;;;;;22.67;4.05;;;4.80;99.90;;;;;;5009881;28;20041;-63
2022/01/28 07:13:34;;;;;;;23.77;4.40;;;4.70;99.90;;;;;;5009156;28;20489;-63
2022/01/28 07:16:00;;;;;;;17.25;3.35;;;4.60;99.90;;;;;;5008513;28;20030;-63
2022/01/28 07:18:25;;;;;;;26.23;3.72;;;4.60;99.90;;;;;;5009129;28;20049;-62
2022/01/28 07:20:51;;;;;;;24.58;4.30;;;4.50;99.90;;;;;;5009225;28;20049;-63
2022/01/28 07:23:17;;;;;;;24.02;3.47;;;4.50;99.90;;;;;;5009073;28;20087;-63
2022/01/28 07:25:42;;;;;;;24.52;3.50;;;4.60;99.90;;;;;;5009103;28;20045;-62
2022/01/28 07:28:08;;;;;;;20.05;3.72;;;4.60;99.90;;;;;;5007923;28;20546;-63
2022/01/28 07:30:34;;;;;;;18.42;4.00;;;4.60;99.90;;;;;;5008482;28;20038;-62
2022/01/28 07:33:01;;;;;;;22.08;4.10;;;4.50;99.90;;;;;;5009904;28;20041;-62
2022/01/28 07:35:27;;;;;;;23.17;3.55;;;4.50;99.90;;;;;;5012913;28;20140;-62
2022/01/28 07:37:53;;;;;;;22.35;4.10;;;4.60;99.90;;;;;;5012534;28;20045;-62
2022/01/28 07:40:18;;;;;;;27.10;4.28;;;4.50;99.90;;;;;;5012489;28;20040;-62
2022/01/28 07:42:44;;;;;;;18.23;4.28;;;4.50;99.90;;;;;;5012790;28;20097;-62
2022/01/28 07:45:13;;;;;;;23.75;3.72;;;4.50;99.90;;;;;;5011841;28;20053;-62
2022/01/28 07:47:39;;;;;;;24.10;3.92;;;4.50;99.90;;;;;;5013318;28;20050;-62
2022/01/28 07:50:07;;;;;;;21.13;3.42;;;4.50;99.90;;;;;;5013091;28;20049;-62
2022/01/28 07:52:33;;;;;;;26.20;3.40;;;4.50;99.90;;;;;;5012693;28;20125;-62
2022/01/28 07:54:58;;;;;;;29.35;4.72;;;4.50;99.90;;;;;;5013152;28;20121;-62
2022/01/28 07:57:24;;;;;;;30.25;4.22;;;4.40;99.90;;;;;;5012931;28;20515;-63
2022/01/28 07:59:49;;;;;;;24.67;4.20;;;4.40;99.90;;;;;;5012475;28;20534;-62
2022/01/28 08:02:15;;;;;;;24.30;4.10;;;4.40;99.90;;;;;;5012951;28;20045;-63
2022/01/28 08:04:40;;;;;;;21.52;3.70;;;4.30;99.90;;;;;;5012865;28;20048;-63
2022/01/28 08:07:06;;;;;;;18.23;3.38;;;4.40;99.90;;;;;;5012939;28;20038;-63
2022/01/28 08:09:32;;;;;;;23.08;3.97;;;4.30;99.90;;;;;;5012643;28;20045;-63
2022/01/28 08:11:58;;;;;;;20.15;3.85;;;4.40;99.90;;;;;;5012668;28;20038;-63
2022/01/28 08:14:24;;;;;;;22.60;4.95;;;4.40;99.90;;;;;;5012239;28;20389;-63
2022/01/28 08:16:50;;;;;;;25.50;3.10;;;4.40;99.90;;;;;;5012893;28;20057;-63
2022/01/28 08:19:15;;;;;;;19.85;3.08;;;4.40;99.90;;;;;;5012581;28;20125;-63
2022/01/28 08:21:41;;;;;;;16.45;3.38;;;4.50;99.90;;;;;;5012469;28;20065;-63
2022/01/28 08:24:06;;;;;;;20.00;3.83;;;4.60;99.90;;;;;;5012284;28;20377;-63
2022/01/28 08:26:32;;;;;;;22.60;3.45;;;4.70;99.90;;;;;;5012426;28;20046;-63
2022/01/28 08:28:58;;;;;;;24.40;4.15;;;4.80;99.90;;;;;;5012085;28;20146;-63
2022/01/28 08:31:23;;;;;;;16.98;3.40;;;4.80;99.90;;;;;;5011195;28;20037;-63
2022/01/28 08:33:49;;;;;;;20.45;3.53;;;4.90;99.90;;;;;;5010105;28;20490;-63
2022/01/28 08:36:14;;;;;;;18.67;3.80;;;4.90;99.90;;;;;;5010800;28;20103;-63
2022/01/28 08:38:44;;;;;;;19.42;3.00;;;5.00;99.90;;;;;;5011140;28;20096;-63
2022/01/28 08:41:13;;;;;;;27.85;4.15;;;5.00;99.90;;;;;;5010862;28;20037;-63
2022/01/28 08:43:40;;;;;;;17.55;3.90;;;5.00;99.90;;;;;;5010605;28;20037;-63
2022/01/28 08:46:06;;;;;;;18.38;3.22;;;4.90;99.90;;;;;;5009957;28;20165;-63
2022/01/28 08:48:31;;;;;;;17.95;3.90;;;4.90;99.90;;;;;;5009301;28;20074;-63
2022/01/28 08:50:58;;;;;;;19.13;3.47;;;4.90;99.90;;;;;;5010071;28;20120;-63
2022/01/28 08:53:24;;;;;;;19.08;3.08;;;4.90;99.90;;;;;;5010494;28;20053;-63
2022/01/28 08:55:49;;;;;;;20.80;4.35;;;4.90;99.90;;;;;;5010435;28;20045;-63
2022/01/28 08:58:15;;;;;;;18.23;3.38;;;4.90;99.90;;;;;;5011730;28;20088;-63
2022/01/28 09:00:45;;;;;;;20.45;3.97;;;4.90;99.90;;;;;;5011600;28;20536;-63
2022/01/28 09:03:12;;;;;;;20.75;3.80;;;5.00;99.90;;;;;;5011536;28;20042;-63
2022/01/28 09:05:37;;;;;;;30.55;3.95;;;5.00;99.90;;;;;;5011620;28;20046;-63
2022/01/28 09:08:08;;;;;;;25.27;3.47;;;5.10;99.90;;;;;;5011830;28;20029;-63
2022/01/28 09:10:37;;;;;;;22.17;3.75;;;5.00;99.90;;;;;;5010200;28;20497;-63
2022/01/28 09:15:33;;;;;;;23.30;3.00;;;5.10;99.90;;;;;;5011591;28;20045;-63
2022/01/28 09:17:59;;;;;;;20.80;4.50;;;5.20;99.90;;;;;;5011499;28;20038;-63
2022/01/28 09:20:25;;;;;;;25.27;4.60;;;5.30;99.90;;;;;;5011557;28;20072;-63
2022/01/28 09:22:52;;;;;;;25.15;4.07;;;5.40;99.90;;;;;;5011091;28;20042;-63
2022/01/28 09:25:17;;;;;;;27.90;3.85;;;5.60;99.90;;;;;;5010864;28;20451;-64
2022/01/28 09:27:43;;;;;;;21.67;3.88;;;5.70;99.90;;;;;;5011160;28;20041;-63
2022/01/28 09:30:09;;;;;;;20.10;3.63;;;5.70;99.90;;;;;;5011170;28;20040;-63
2022/01/28 09:32:34;;;;;;;25.80;4.13;;;5.70;99.90;;;;;;5010798;28;20544;-63
2022/01/28 09:35:02;;;;;;;20.70;3.28;;;5.80;99.90;;;;;;5011170;28;20081;-63
2022/01/28 09:37:28;;;;;;;19.00;3.83;;;5.80;99.90;;;;;;5010991;28;20551;-63
2022/01/28 09:39:53;;;;;;;22.42;3.83;;;5.90;99.90;;;;;;5010815;28;20041;-63
2022/01/28 09:42:22;;;;;;;15.30;3.92;;;6.00;99.90;;;;;;5011000;28;20041;-64
2022/01/28 09:44:48;;;;;;;19.25;3.63;;;6.10;99.90;;;;;;5010777;28;20064;-63
2022/01/28 09:47:15;;;;;;;28.05;4.50;;;6.20;99.90;;;;;;5010771;28;20523;-63
2022/01/28 09:49:41;;;;;;;21.08;3.40;;;6.30;99.90;;;;;;5010462;28;20542;-63
2022/01/28 09:52:09;;;;;;;18.55;3.28;;;6.40;99.90;;;;;;5009728;28;20049;-63
2022/01/28 09:54:36;;;;;;;24.38;4.18;;;6.50;99.90;;;;;;5009277;28;20241;-64
2022/01/28 09:57:03;;;;;;;18.35;3.53;;;6.50;99.90;;;;;;5008272;28;20057;-64
2022/01/28 09:59:29;;;;;;;14.68;3.33;;;6.60;99.90;;;;;;5009577;28;20049;-63
2022/01/28 10:01:55;;;;;;;20.40;3.28;;;6.50;99.90;;;;;;5010046;28;20424;-63
2022/01/28 10:04:22;;;;;;;21.20;3.47;;;6.50;99.90;;;;;;5009713;28;20447;-63
2022/01/28 10:06:48;;;;;;;19.70;3.80;;;6.40;99.90;;;;;;5010407;28;20045;-64
2022/01/28 10:09:17;;;;;;;28.73;4.03;;;6.40;99.90;;;;;;5010629;28;20037;-63
2022/01/28 10:11:45;;;;;;;24.33;4.63;;;6.40;99.90;;;;;;5010646;28;20117;-63
2022/01/28 10:14:24;;;;;;;22.92;4.35;;;6.50;99.90;;;;;;5009172;28;20400;-63
2022/01/28 10:16:58;;;;;;;20.48;3.25;;;6.50;99.90;;;;;;5010406;28;20045;-64
2022/01/28 10:19:26;;;;;;;21.02;3.15;;;6.60;99.90;;;;;;5010175;28;20034;-65
2022/01/28 10:21:53;;;;;;;25.10;4.45;;;6.60;99.90;;;;;;5010477;28;20088;-64
2022/01/28 10:24:24;;;;;;;25.80;4.47;;;6.70;99.90;;;;;;5008966;28;20504;-63
2022/01/28 10:26:49;;;;;;;21.75;4.57;;;6.80;99.90;;;;;;5010257;28;20041;-63
2022/01/28 10:29:22;;;;;;;28.70;3.70;;;6.80;99.90;;;;;;5010117;28;20188;-63
2022/01/28 10:32:06;;;;;;;24.17;3.38;;;6.80;99.90;;;;;;5010140;28;20037;-63
2022/01/28 10:34:37;;;;;;;28.10;5.07;;;6.80;99.90;;;;;;5010085;28;20408;-64
2022/01/28 10:37:24;;;;;;;9.98;2.72;;;6.80;99.90;;;;;;5010370;28;20056;-64
2022/01/28 10:39:53;;;;;;;19.73;3.30;;;6.70;99.90;;;;;;5010095;28;20053;-63
2022/01/28 10:42:50;;;;;;;25.65;3.30;;;6.80;99.90;;;;;;5009825;28;20049;-63
2022/01/28 10:45:19;;;;;;;26.30;3.72;;;6.80;99.90;;;;;;5007711;28;20057;-62
2022/01/28 10:47:53;;;;;;;16.77;3.13;;;6.90;99.90;;;;;;5010085;28;20034;-64
2022/01/28 10:50:22;;;;;;;21.35;4.07;;;6.90;99.90;;;;;;5008902;28;20125;-63
2022/01/28 10:53:02;;;;;;;17.27;3.47;;;6.90;99.90;;;;;;5009650;28;20069;-63
2022/01/28 10:55:30;;;;;;;21.20;4.38;;;6.90;99.90;;;;;;5008540;28;20054;-64
2022/01/28 10:58:06;;;;;;;18.08;3.60;;;6.90;99.90;;;;;;5010266;28;20161;-63
2022/01/28 11:00:36;;;;;;;26.25;3.95;;;7.10;99.90;;;;;;5009787;28;20077;-63
2022/01/28 11:03:05;;;;;;;18.27;3.90;;;7.10;99.90;;;;;;5009746;28;20124;-63
2022/01/28 11:05:32;;;;;;;24.27;4.00;;;7.20;99.90;;;;;;5010350;28;20045;-63
2022/01/28 11:08:00;;;;;;;22.42;4.47;;;7.10;99.90;;;;;;5011607;28;20038;-63
2022/01/28 11:10:27;;;;;;;34.63;4.07;;;7.20;99.90;;;;;;5013721;28;20532;-64
2022/01/28 11:12:53;;;;;;;21.67;3.72;;;7.30;99.90;;;;;;5013709;28;20041;-63
2022/01/28 11:15:20;;;;;;;24.05;3.58;;;7.30;99.90;;;;;;5013850;28;20037;-63
2022/01/28 11:17:47;;;;;;;22.40;4.40;;;7.30;99.90;;;;;;5013648;28;20085;-63
2022/01/28 11:20:18;;;;;;;24.95;4.38;;;7.30;99.90;;;;;;5013737;28;20505;-63
2022/01/28 11:23:02;;;;;;;22.00;3.83;;;7.30;99.90;;;;;;5013468;28;20104;-63
2022/01/28 11:25:42;;;;;;;25.65;4.20;;;7.20;99.90;;;;;;5013504;28;20099;-63
2022/01/28 11:28:13;;;;;;;22.17;3.50;;;7.30;99.90;;;;;;5013574;28;20084;-63
2022/01/28 11:30:50;;;;;;;29.40;4.40;;;7.30;99.90;;;;;;5013709;28;20042;-63
2022/01/28 11:33:16;;;;;;;24.25;3.47;;;7.40;99.90;;;;;;5013382;28;20069;-63
2022/01/28 11:35:59;;;;;;;22.02;4.35;;;7.40;99.90;;;;;;5012398;28;20073;-63
2022/01/28 11:38:25;;;;;;;22.20;4.38;;;7.40;99.90;;;;;;5012496;28;20050;-63
2022/01/28 11:41:06;;;;;;;20.63;3.75;;;7.30;99.90;;;;;;5012011;28;20072;-63
2022/01/28 11:43:33;;;;;;;18.30;3.75;;;7.30;99.90;;;;;;5013262;28;20048;-63
2022/01/28 11:46:19;;;;;;;18.70;3.88;;;7.40;99.90;;;;;;5013192;28;20038;-64
2022/01/28 11:49:02;;;;;;;24.80;4.10;;;7.60;99.90;;;;;;5012328;28;20463;-63
2022/01/28 11:51:36;;;;;;;24.77;3.60;;;7.80;99.90;;;;;;5013170;28;20085;-63
2022/01/28 11:54:05;;;;;;;21.58;3.80;;;7.90;99.90;;;;;;5012790;28;20034;-63
2022/01/28 11:56:31;;;;;;;25.95;5.47;;;7.80;99.90;;;;;;5013148;28;20046;-64
2022/01/28 11:59:07;;;;;;;20.08;3.97;;;7.60;99.90;;;;;;5013200;28;20088;-63
2022/01/28 12:01:35;;;;;;;21.63;4.80;;;7.50;99.90;;;;;;5012585;28;20053;-64
2022/01/28 12:04:31;;;;;;;21.67;3.42;;;7.40;99.90;;;;;;5012876;28;20038;-64
2022/01/28 12:07:15;;;;;;;22.63;4.00;;;7.30;99.90;;;;;;5012817;28;20049;-63
2022/01/28 12:09:47;;;;;;;18.33;3.50;;;7.30;99.90;;;;;;5012823;28;20080;-64
2022/01/28 12:12:18;;;;;;;23.35;5.05;;;7.30;99.90;;;;;;5011320;28;20042;-64
2022/01/28 12:14:58;;;;;;;;;;;7.30;99.90;;;;;;5013092;28;20038;-63
2022/01/28 12:17:29;;;;;;;18.75;3.47;;;7.40;99.90;;;;;;5012763;28;19993;-64
2022/01/28 12:20:24;;;;;;;27.25;3.83;;;7.50;99.90;;;;;;5011244;28;20049;-63
2022/01/28 12:23:08;;;;;;;22.13;3.42;;;7.50;99.90;;;;;;5012085;28;20041;-62
2022/01/28 12:25:36;;;;;;;17.17;3.03;;;7.50;99.90;;;;;;5012198;28;20060;-63
2022/01/28 12:28:25;;;;;;;14.75;2.80;;;7.40;99.90;;;;;;5012292;28;20505;-63
2022/01/28 12:30:59;;;;;;;24.63;3.88;;;7.40;99.90;;;;;;5012228;28;20452;-62
2022/01/28 12:33:28;;;;;;;22.63;3.15;;;7.40;99.90;;;;;;5012310;28;20114;-63
2022/01/28 12:35:56;;;;;;;18.90;3.42;;;7.50;99.90;;;;;;5012260;28;20113;-63
2022/01/28 12:38:24;;;;;;;20.73;3.60;;;7.50;99.90;;;;;;5012198;28;20042;-63
2022/01/28 12:40:53;;;;;;;21.98;3.08;;;7.50;99.90;;;;;;5011734;28;20058;-63
2022/01/28 12:43:21;;;;;;;14.90;3.20;;;7.50;99.90;;;;;;5010415;28;20030;-63
2022/01/28 12:46:09;;;;;;;20.40;2.80;;;7.50;99.90;;;;;;5010858;28;20076;-63
2022/01/28 12:48:35;;;;;;;17.60;2.85;;;7.60;99.90;;;;;;5009815;28;20513;-63
2022/01/28 12:51:02;;;;;;;17.85;3.00;;;7.60;99.90;;;;;;5010781;28;20037;-63
2022/01/28 12:53:39;;;;;;;28.50;3.35;;;7.60;99.90;;;;;;5009124;28;20149;-63
2022/01/28 12:56:06;;;;;;;19.00;2.90;;;7.70;99.90;;;;;;5008564;28;20042;-63
2022/01/28 12:58:52;;;;;;;18.38;2.95;;;7.70;99.90;;;;;;5010732;28;20723;-63
2022/01/28 13:01:19;;;;;;;17.52;3.30;;;7.60;99.90;;;;;;5010041;28;20056;-63
2022/01/28 13:04:00;;;;;;;19.42;3.78;;;7.50;99.90;;;;;;5011549;28;20049;-63
2022/01/28 13:09:01;;;;;;;19.73;3.10;;;7.30;99.90;;;;;;5011725;28;20046;-63
2022/01/28 13:11:27;;;;;;;22.92;3.17;;;7.40;99.90;;;;;;5010504;28;20034;-63
2022/01/28 13:13:57;;;;;;;15.30;3.00;;;7.40;99.90;;;;;;5011473;28;20042;-63
2022/01/28 13:16:38;;;;;;;26.95;4.35;;;7.40;99.90;;;;;;5011351;28;20078;-63
2022/01/28 13:19:05;;;;;;;21.70;3.20;;;7.40;99.90;;;;;;5011515;28;20041;-62
2022/01/28 13:21:33;;;;;;;20.02;3.50;;;7.40;99.90;;;;;;5011486;28;20077;-63
2022/01/28 13:24:11;;;;;;;16.55;3.28;;;7.50;99.90;;;;;;5011216;28;20068;-62
2022/01/28 13:27:03;;;;;;;23.55;4.07;;;7.60;99.90;;;;;;5009896;28;20046;-63
2022/01/28 13:29:31;;;;;;;;;;;7.70;99.90;;;;;;5011784;28;20042;-62
2022/01/28 13:31:58;;;;;;;17.17;3.85;;;7.80;99.90;;;;;;5010841;28;19980;-62
2022/01/28 13:34:24;;;;;;;30.55;4.43;;;7.90;99.90;;;;;;5011082;28;20040;-63
2022/01/28 13:36:53;;;;;;;23.00;4.20;;;7.90;99.90;;;;;;5011110;28;20045;-62
2022/01/28 13:39:21;;;;;;;19.63;4.45;;;7.80;99.90;;;;;;5010935;28;20041;-62
2022/01/28 13:41:51;;;;;;;19.88;4.32;;;7.60;99.90;;;;;;5010902;28;20052;-62
2022/01/28 13:44:22;;;;;;;23.02;4.20;;;7.50;99.90;;;;;;5011107;28;20116;-62
2022/01/28 13:46:55;;;;;;;25.67;6.10;;;7.50;99.90;;;;;;5010096;28;20085;-63
2022/01/28 13:49:22;;;;;;;21.63;4.00;;;7.50;99.90;;;;;;5009417;28;20048;-63
2022/01/28 13:51:49;;;;;;;21.63;4.60;;;7.50;99.90;;;;;;5009282;28;20066;-62
2022/01/28 13:54:20;;;;;;;22.90;3.70;;;7.60;99.90;;;;;;5009058;28;20726;-62
2022/01/28 13:56:47;;;;;;;;;;;7.70;99.90;;;;;;5009744;28;20515;-62
2022/01/28 13:59:20;;;;;;;18.65;3.40;;;7.80;99.90;;;;;;5009172;28;20236;-62
2022/01/28 14:01:49;;;;;;;18.88;3.33;;;7.90;99.90;;;;;;5009449;28;20116;-61
2022/01/28 14:04:39;;;;;;;20.23;3.13;;;8.00;99.90;;;;;;5010669;28;20412;-62
2022/01/28 14:07:09;;;;;;;22.33;3.75;;;8.00;99.90;;;;;;5010679;28;20045;-63
2022/01/28 14:09:50;;;;;;;18.98;3.30;;;8.00;99.90;;;;;;5010554;28;20108;-62
2022/01/28 14:12:24;;;;;;;21.02;3.50;;;8.00;99.90;;;;;;5010471;28;20447;-62
2022/01/28 14:14:51;;;;;;;28.73;3.17;;;8.00;99.90;;;;;;5010401;28;20447;-63
2022/01/28 14:17:16;;;;;;;21.35;4.28;;;8.00;99.90;;;;;;5010618;28;20103;-62
2022/01/28 14:19:43;;;;;;;19.65;3.58;;;7.90;99.90;;;;;;5010458;28;20037;-62
2022/01/28 14:22:13;;;;;;;22.40;3.55;;;7.80;99.90;;;;;;5009014;28;20087;-62
2022/01/28 14:24:40;;;;;;;17.35;3.22;;;7.60;99.90;;;;;;5010311;28;20051;-63